sensor_id;sensor_type;location;lat;lon;timestamp;temperature;humidity
83142;DHT22;75194;51.180;5.972;2024-03-23T00:53:43;7.60;79.30
83142;DHT22;75194;51.180;5.972;2024-03-23T00:56:09;7.60;79.90
83142;DHT22;75194;51.180;5.972;2024-03-23T00:58:34;7.60;80.60
83142;DHT22;75194;51.180;5.972;2024-03-23T01:01:00;7.50;81.00
83142;DHT22;75194;51.180;5.972;2024-03-23T01:03:26;7.50;80.20
83142;DHT22;75194;51.180;5.972;2024-03-23T01:05:51;7.40;79.50
83142;DHT22;75194;51.180;5.972;2024-03-23T01:08:19;7.40;80.90
83142;DHT22;75194;51.180;5.972;2024-03-23T01:10:57;7.50;80.70
83142;DHT22;75194;51.180;5.972;2024-03-23T01:13:23;7.40;80.00
83142;DHT22;75194;51.180;5.972;2024-03-23T01:15:53;7.40;80.90
83142;DHT22;75194;51.180;5.972;2024-03-23T01:18:19;7.30;79.90
83142;DHT22;75194;51.180;5.972;2024-03-23T01:20:46;7.20;82.00
83142;DHT22;75194;51.180;5.972;2024-03-23T01:23:12;7.20;82.60
83142;DHT22;75194;51.180;5.972;2024-03-23T01:25:42;7.30;83.70
83142;DHT22;75194;51.180;5.972;2024-03-23T01:28:08;7.30;83.90
83142;DHT22;75194;51.180;5.972;2024-03-23T01:30:34;7.30;82.40
83142;DHT22;75194;51.180;5.972;2024-03-23T01:33:00;7.40;83.10
83142;DHT22;75194;51.180;5.972;2024-03-23T01:35:26;7.40;82.50
83142;DHT22;75194;51.180;5.972;2024-03-23T01:37:52;7.30;82.80
83142;DHT22;75194;51.180;5.972;2024-03-23T01:40:18;7.20;81.30
83142;DHT22;75194;51.180;5.972;2024-03-23T01:43:13;7.20;83.30
83142;DHT22;75194;51.180;5.972;2024-03-23T01:45:39;7.20;81.90
83142;DHT22;75194;51.180;5.972;2024-03-23T01:48:05;7.30;82.20
83142;DHT22;75194;51.180;5.972;2024-03-23T01:50:31;7.30;81.70
83142;DHT22;75194;51.180;5.972;2024-03-23T01:53:04;7.20;80.10
83142;DHT22;75194;51.180;5.972;2024-03-23T01:55:32;7.20;81.70
83142;DHT22;75194;51.180;5.972;2024-03-23T01:57:58;7.10;81.80
83142;DHT22;75194;51.180;5.972;2024-03-23T02:00:24;7.10;81.40
83142;DHT22;75194;51.180;5.972;2024-03-23T02:02:49;7.20;81.40
83142;DHT22;75194;51.180;5.972;2024-03-23T02:05:15;7.20;80.70
83142;DHT22;75194;51.180;5.972;2024-03-23T02:07:43;7.20;81.30
83142;DHT22;75194;51.180;5.972;2024-03-23T02:10:10;7.10;81.50
83142;DHT22;75194;51.180;5.972;2024-03-23T02:12:36;7.10;82.80
83142;DHT22;75194;51.180;5.972;2024-03-23T02:15:03;7.10;81.80
83142;DHT22;75194;51.180;5.972;2024-03-23T02:17:30;7.20;82.20
83142;DHT22;75194;51.180;5.972;2024-03-23T02:19:57;7.20;82.10
83142;DHT22;75194;51.180;5.972;2024-03-23T02:22:23;7.30;81.10
83142;DHT22;75194;51.180;5.972;2024-03-23T02:24:51;7.30;80.40
83142;DHT22;75194;51.180;5.972;2024-03-23T02:27:17;7.20;82.00
83142;DHT22;75194;51.180;5.972;2024-03-23T02:29:42;7.10;81.40
83142;DHT22;75194;51.180;5.972;2024-03-23T02:32:08;7.00;81.00
83142;DHT22;75194;51.180;5.972;2024-03-23T02:34:37;7.00;81.10
83142;DHT22;75194;51.180;5.972;2024-03-23T02:37:02;6.90;81.80
83142;DHT22;75194;51.180;5.972;2024-03-23T02:39:28;6.90;81.20
83142;DHT22;75194;51.180;5.972;2024-03-23T02:41:54;6.90;81.90
83142;DHT22;75194;51.180;5.972;2024-03-23T02:44:21;7.00;81.40
83142;DHT22;75194;51.180;5.972;2024-03-23T02:46:47;7.00;82.10
83142;DHT22;75194;51.180;5.972;2024-03-23T02:49:13;7.10;80.60
83142;DHT22;75194;51.180;5.972;2024-03-23T02:51:39;7.10;80.70
83142;DHT22;75194;51.180;5.972;2024-03-23T02:54:06;7.10;81.00
83142;DHT22;75194;51.180;5.972;2024-03-23T02:56:33;7.20;81.60
83142;DHT22;75194;51.180;5.972;2024-03-23T02:59:03;7.20;81.80
83142;DHT22;75194;51.180;5.972;2024-03-23T03:01:29;7.20;81.60
83142;DHT22;75194;51.180;5.972;2024-03-23T03:03:54;7.10;81.80
83142;DHT22;75194;51.180;5.972;2024-03-23T03:06:24;7.10;82.40
83142;DHT22;75194;51.180;5.972;2024-03-23T03:08:50;7.00;81.80
83142;DHT22;75194;51.180;5.972;2024-03-23T03:11:15;7.10;81.60
83142;DHT22;75194;51.180;5.972;2024-03-23T03:13:41;7.10;82.10
83142;DHT22;75194;51.180;5.972;2024-03-23T03:16:14;7.10;81.80
83142;DHT22;75194;51.180;5.972;2024-03-23T03:18:39;7.10;82.30
83142;DHT22;75194;51.180;5.972;2024-03-23T03:21:09;7.00;82.40
83142;DHT22;75194;51.180;5.972;2024-03-23T03:23:39;6.90;82.20
83142;DHT22;75194;51.180;5.972;2024-03-23T03:26:05;7.00;81.90
83142;DHT22;75194;51.180;5.972;2024-03-23T03:28:35;7.00;82.20
83142;DHT22;75194;51.180;5.972;2024-03-23T03:31:00;7.00;82.20
83142;DHT22;75194;51.180;5.972;2024-03-23T03:33:27;6.90;81.90
83142;DHT22;75194;51.180;5.972;2024-03-23T03:35:54;6.90;82.60
83142;DHT22;75194;51.180;5.972;2024-03-23T03:38:19;6.90;82.50
83142;DHT22;75194;51.180;5.972;2024-03-23T03:40:45;6.90;81.60
83142;DHT22;75194;51.180;5.972;2024-03-23T03:43:11;7.00;81.00
83142;DHT22;75194;51.180;5.972;2024-03-23T03:45:37;6.90;81.00
83142;DHT22;75194;51.180;5.972;2024-03-23T03:48:03;6.80;82.10
83142;DHT22;75194;51.180;5.972;2024-03-23T03:50:29;6.80;82.20
83142;DHT22;75194;51.180;5.972;2024-03-23T03:52:54;6.80;81.00
83142;DHT22;75194;51.180;5.972;2024-03-23T03:55:20;6.80;81.20
83142;DHT22;75194;51.180;5.972;2024-03-23T03:57:45;6.80;81.60
83142;DHT22;75194;51.180;5.972;2024-03-23T04:00:11;6.80;82.40
83142;DHT22;75194;51.180;5.972;2024-03-23T04:02:38;6.70;81.80
83142;DHT22;75194;51.180;5.972;2024-03-23T04:05:04;6.70;82.10
83142;DHT22;75194;51.180;5.972;2024-03-23T04:07:30;6.70;82.60
83142;DHT22;75194;51.180;5.972;2024-03-23T04:09:55;6.60;82.60
83142;DHT22;75194;51.180;5.972;2024-03-23T04:12:21;6.60;82.90
83142;DHT22;75194;51.180;5.972;2024-03-23T04:14:46;6.70;82.90
83142;DHT22;75194;51.180;5.972;2024-03-23T04:17:12;6.60;83.60
83142;DHT22;75194;51.180;5.972;2024-03-23T04:19:37;6.60;84.10
83142;DHT22;75194;51.180;5.972;2024-03-23T04:22:03;6.60;83.90
83142;DHT22;75194;51.180;5.972;2024-03-23T04:24:29;6.60;83.80
83142;DHT22;75194;51.180;5.972;2024-03-23T04:26:55;6.70;84.50
83142;DHT22;75194;51.180;5.972;2024-03-23T04:29:20;6.60;83.80
83142;DHT22;75194;51.180;5.972;2024-03-23T04:31:46;6.50;84.00
83142;DHT22;75194;51.180;5.972;2024-03-23T04:34:12;6.60;84.30
83142;DHT22;75194;51.180;5.972;2024-03-23T04:36:38;6.50;84.30
83142;DHT22;75194;51.180;5.972;2024-03-23T04:39:04;6.50;84.40
83142;DHT22;75194;51.180;5.972;2024-03-23T04:41:29;6.40;84.90
83142;DHT22;75194;51.180;5.972;2024-03-23T04:43:55;6.50;83.60
83142;DHT22;75194;51.180;5.972;2024-03-23T04:46:21;6.40;84.60
83142;DHT22;75194;51.180;5.972;2024-03-23T04:48:46;6.40;84.20
83142;DHT22;75194;51.180;5.972;2024-03-23T04:51:23;6.30;84.60
83142;DHT22;75194;51.180;5.972;2024-03-23T04:53:49;6.30;84.50
83142;DHT22;75194;51.180;5.972;2024-03-23T04:56:15;6.20;84.00
83142;DHT22;75194;51.180;5.972;2024-03-23T04:58:44;6.20;84.60
83142;DHT22;75194;51.180;5.972;2024-03-23T05:01:12;6.30;83.80
83142;DHT22;75194;51.180;5.972;2024-03-23T05:03:37;6.30;83.70
83142;DHT22;75194;51.180;5.972;2024-03-23T05:06:03;6.30;83.80
83142;DHT22;75194;51.180;5.972;2024-03-23T05:08:30;6.20;84.00
83142;DHT22;75194;51.180;5.972;2024-03-23T05:10:56;6.30;82.90
83142;DHT22;75194;51.180;5.972;2024-03-23T05:13:23;6.20;83.30
83142;DHT22;75194;51.180;5.972;2024-03-23T05:15:55;6.10;83.50
83142;DHT22;75194;51.180;5.972;2024-03-23T05:18:21;6.10;83.50
83142;DHT22;75194;51.180;5.972;2024-03-23T05:20:47;6.10;83.60
83142;DHT22;75194;51.180;5.972;2024-03-23T05:23:13;6.20;82.60
83142;DHT22;75194;51.180;5.972;2024-03-23T05:25:38;6.20;83.30
83142;DHT22;75194;51.180;5.972;2024-03-23T05:28:04;6.10;82.90
83142;DHT22;75194;51.180;5.972;2024-03-23T05:30:30;6.00;83.50
83142;DHT22;75194;51.180;5.972;2024-03-23T05:32:56;6.10;83.20
83142;DHT22;75194;51.180;5.972;2024-03-23T05:35:22;6.00;83.50
83142;DHT22;75194;51.180;5.972;2024-03-23T05:37:47;6.10;83.70
83142;DHT22;75194;51.180;5.972;2024-03-23T05:40:13;6.10;83.10
83142;DHT22;75194;51.180;5.972;2024-03-23T05:42:40;6.20;83.20
83142;DHT22;75194;51.180;5.972;2024-03-23T05:45:06;6.20;82.90
83142;DHT22;75194;51.180;5.972;2024-03-23T05:47:33;6.10;83.70
83142;DHT22;75194;51.180;5.972;2024-03-23T05:50:00;6.10;83.30
83142;DHT22;75194;51.180;5.972;2024-03-23T05:52:27;6.10;83.70
83142;DHT22;75194;51.180;5.972;2024-03-23T05:54:52;6.20;83.60
83142;DHT22;75194;51.180;5.972;2024-03-23T05:57:18;6.20;83.80
83142;DHT22;75194;51.180;5.972;2024-03-23T05:59:45;6.20;83.40
83142;DHT22;75194;51.180;5.972;2024-03-23T06:02:13;6.20;83.10
83142;DHT22;75194;51.180;5.972;2024-03-23T06:04:38;6.20;83.40
83142;DHT22;75194;51.180;5.972;2024-03-23T06:07:04;6.20;83.40
83142;DHT22;75194;51.180;5.972;2024-03-23T06:09:39;6.30;83.40
83142;DHT22;75194;51.180;5.972;2024-03-23T06:12:05;6.30;82.80
83142;DHT22;75194;51.180;5.972;2024-03-23T06:14:30;6.40;83.30
83142;DHT22;75194;51.180;5.972;2024-03-23T06:16:56;6.30;82.50
83142;DHT22;75194;51.180;5.972;2024-03-23T06:19:22;6.40;82.90
83142;DHT22;75194;51.180;5.972;2024-03-23T06:21:48;6.50;82.50
83142;DHT22;75194;51.180;5.972;2024-03-23T06:24:13;6.50;82.50
83142;DHT22;75194;51.180;5.972;2024-03-23T06:26:39;6.60;82.30
83142;DHT22;75194;51.180;5.972;2024-03-23T06:29:07;6.60;82.50
83142;DHT22;75194;51.180;5.972;2024-03-23T06:31:34;6.70;81.50
83142;DHT22;75194;51.180;5.972;2024-03-23T06:33:59;6.70;82.00
83142;DHT22;75194;51.180;5.972;2024-03-23T06:36:26;6.70;81.80
83142;DHT22;75194;51.180;5.972;2024-03-23T06:38:52;6.70;81.70
83142;DHT22;75194;51.180;5.972;2024-03-23T06:41:19;6.50;81.80
83142;DHT22;75194;51.180;5.972;2024-03-23T06:43:44;6.50;81.50
83142;DHT22;75194;51.180;5.972;2024-03-23T06:46:10;6.50;81.30
83142;DHT22;75194;51.180;5.972;2024-03-23T06:48:35;6.60;81.50
83142;DHT22;75194;51.180;5.972;2024-03-23T06:51:01;6.60;81.40
83142;DHT22;75194;51.180;5.972;2024-03-23T06:53:27;6.60;79.10
83142;DHT22;75194;51.180;5.972;2024-03-23T06:55:53;6.60;78.60
83142;DHT22;75194;51.180;5.972;2024-03-23T06:58:24;6.70;77.40
83142;DHT22;75194;51.180;5.972;2024-03-23T07:00:49;6.70;76.40
83142;DHT22;75194;51.180;5.972;2024-03-23T07:03:18;6.80;76.90
83142;DHT22;75194;51.180;5.972;2024-03-23T07:05:44;6.90;74.70
83142;DHT22;75194;51.180;5.972;2024-03-23T07:08:11;7.00;74.30
83142;DHT22;75194;51.180;5.972;2024-03-23T07:10:39;7.10;72.60
83142;DHT22;75194;51.180;5.972;2024-03-23T07:13:05;7.30;71.00
83142;DHT22;75194;51.180;5.972;2024-03-23T07:15:32;7.40;71.00
83142;DHT22;75194;51.180;5.972;2024-03-23T07:17:57;7.40;69.20
83142;DHT22;75194;51.180;5.972;2024-03-23T07:20:23;7.50;69.60
83142;DHT22;75194;51.180;5.972;2024-03-23T07:22:48;7.60;69.40
83142;DHT22;75194;51.180;5.972;2024-03-23T07:25:14;7.60;67.40
83142;DHT22;75194;51.180;5.972;2024-03-23T07:27:40;7.70;67.30
83142;DHT22;75194;51.180;5.972;2024-03-23T07:30:06;7.70;67.30
83142;DHT22;75194;51.180;5.972;2024-03-23T07:32:32;7.60;67.60
83142;DHT22;75194;51.180;5.972;2024-03-23T07:34:57;7.70;68.30
83142;DHT22;75194;51.180;5.972;2024-03-23T07:37:23;7.90;67.80
83142;DHT22;75194;51.180;5.972;2024-03-23T07:39:49;7.90;67.80
83142;DHT22;75194;51.180;5.972;2024-03-23T07:42:15;8.10;68.70
83142;DHT22;75194;51.180;5.972;2024-03-23T07:44:40;8.10;67.50
83142;DHT22;75194;51.180;5.972;2024-03-23T07:47:06;8.20;69.00
83142;DHT22;75194;51.180;5.972;2024-03-23T07:49:32;8.40;68.80
83142;DHT22;75194;51.180;5.972;2024-03-23T07:51:58;8.40;68.20
83142;DHT22;75194;51.180;5.972;2024-03-23T07:54:23;8.60;67.70
83142;DHT22;75194;51.180;5.972;2024-03-23T07:56:49;8.60;67.40
83142;DHT22;75194;51.180;5.972;2024-03-23T07:59:14;8.30;68.00
83142;DHT22;75194;51.180;5.972;2024-03-23T08:01:40;8.20;69.30
83142;DHT22;75194;51.180;5.972;2024-03-23T08:04:06;7.90;69.50
83142;DHT22;75194;51.180;5.972;2024-03-23T08:06:31;8.00;70.70
83142;DHT22;75194;51.180;5.972;2024-03-23T08:08:57;8.30;70.70
83142;DHT22;75194;51.180;5.972;2024-03-23T08:11:27;8.50;70.60
83142;DHT22;75194;51.180;5.972;2024-03-23T08:13:53;8.60;70.20
83142;DHT22;75194;51.180;5.972;2024-03-23T08:16:19;8.60;70.10
83142;DHT22;75194;51.180;5.972;2024-03-23T08:18:44;8.90;69.90
83142;DHT22;75194;51.180;5.972;2024-03-23T08:21:10;8.90;69.50
83142;DHT22;75194;51.180;5.972;2024-03-23T08:23:36;9.00;68.80
83142;DHT22;75194;51.180;5.972;2024-03-23T08:26:11;8.90;69.50
83142;DHT22;75194;51.180;5.972;2024-03-23T08:28:37;8.90;69.40
83142;DHT22;75194;51.180;5.972;2024-03-23T08:31:11;8.80;69.50
83142;DHT22;75194;51.180;5.972;2024-03-23T08:33:37;9.10;68.50
83142;DHT22;75194;51.180;5.972;2024-03-23T08:36:05;9.20;67.90
83142;DHT22;75194;51.180;5.972;2024-03-23T08:38:31;9.30;67.20
83142;DHT22;75194;51.180;5.972;2024-03-23T08:40:58;9.30;65.70
83142;DHT22;75194;51.180;5.972;2024-03-23T08:43:25;9.60;66.20
83142;DHT22;75194;51.180;5.972;2024-03-23T08:45:51;9.40;65.60
83142;DHT22;75194;51.180;5.972;2024-03-23T08:48:18;9.10;66.00
83142;DHT22;75194;51.180;5.972;2024-03-23T08:50:45;9.00;66.30
83142;DHT22;75194;51.180;5.972;2024-03-23T08:53:10;9.50;64.90
83142;DHT22;75194;51.180;5.972;2024-03-23T08:55:36;9.50;64.40
83142;DHT22;75194;51.180;5.972;2024-03-23T08:58:01;9.40;64.70
83142;DHT22;75194;51.180;5.972;2024-03-23T09:00:27;9.40;63.50
83142;DHT22;75194;51.180;5.972;2024-03-23T09:02:53;9.60;62.70
83142;DHT22;75194;51.180;5.972;2024-03-23T09:05:19;9.80;62.10
83142;DHT22;75194;51.180;5.972;2024-03-23T09:07:44;9.90;61.10
83142;DHT22;75194;51.180;5.972;2024-03-23T09:10:10;10.10;61.50
83142;DHT22;75194;51.180;5.972;2024-03-23T09:12:36;10.10;60.00
83142;DHT22;75194;51.180;5.972;2024-03-23T09:15:01;9.50;62.50
83142;DHT22;75194;51.180;5.972;2024-03-23T09:17:29;9.60;62.50
83142;DHT22;75194;51.180;5.972;2024-03-23T09:19:55;9.80;60.70
83142;DHT22;75194;51.180;5.972;2024-03-23T09:22:20;10.30;59.00
83142;DHT22;75194;51.180;5.972;2024-03-23T09:24:49;9.80;59.40
83142;DHT22;75194;51.180;5.972;2024-03-23T09:27:14;10.10;59.30
83142;DHT22;75194;51.180;5.972;2024-03-23T09:29:43;10.30;59.00
83142;DHT22;75194;51.180;5.972;2024-03-23T09:32:08;9.90;60.30
83142;DHT22;75194;51.180;5.972;2024-03-23T09:34:34;9.70;60.90
83142;DHT22;75194;51.180;5.972;2024-03-23T09:37:00;9.50;59.70
83142;DHT22;75194;51.180;5.972;2024-03-23T09:39:25;9.90;59.90
83142;DHT22;75194;51.180;5.972;2024-03-23T09:41:56;9.80;56.50
83142;DHT22;75194;51.180;5.972;2024-03-23T09:44:22;9.40;56.20
83142;DHT22;75194;51.180;5.972;2024-03-23T09:46:56;9.40;57.10
83142;DHT22;75194;51.180;5.972;2024-03-23T09:49:22;9.30;57.80
83142;DHT22;75194;51.180;5.972;2024-03-23T09:51:50;9.30;58.60
83142;DHT22;75194;51.180;5.972;2024-03-23T09:54:16;9.30;58.50
83142;DHT22;75194;51.180;5.972;2024-03-23T09:56:45;9.50;57.40
83142;DHT22;75194;51.180;5.972;2024-03-23T09:59:11;9.40;59.10
83142;DHT22;75194;51.180;5.972;2024-03-23T10:01:37;9.10;62.20
83142;DHT22;75194;51.180;5.972;2024-03-23T10:04:03;8.50;65.60
83142;DHT22;75194;51.180;5.972;2024-03-23T10:06:28;7.80;68.40
83142;DHT22;75194;51.180;5.972;2024-03-23T10:08:54;7.30;69.90
83142;DHT22;75194;51.180;5.972;2024-03-23T10:11:20;7.10;71.60
83142;DHT22;75194;51.180;5.972;2024-03-23T10:13:46;6.90;73.90
83142;DHT22;75194;51.180;5.972;2024-03-23T10:16:21;7.00;74.00
83142;DHT22;75194;51.180;5.972;2024-03-23T10:18:47;7.00;73.90
83142;DHT22;75194;51.180;5.972;2024-03-23T10:21:14;7.10;73.10
83142;DHT22;75194;51.180;5.972;2024-03-23T10:23:41;7.20;71.20
83142;DHT22;75194;51.180;5.972;2024-03-23T10:26:20;7.60;73.20
83142;DHT22;75194;51.180;5.972;2024-03-23T10:29:00;7.90;69.60
83142;DHT22;75194;51.180;5.972;2024-03-23T10:31:30;7.70;69.90
83142;DHT22;75194;51.180;5.972;2024-03-23T10:33:56;7.80;69.70
83142;DHT22;75194;51.180;5.972;2024-03-23T10:36:23;8.10;69.40
83142;DHT22;75194;51.180;5.972;2024-03-23T10:38:50;8.70;69.00
83142;DHT22;75194;51.180;5.972;2024-03-23T10:41:16;9.50;67.70
83142;DHT22;75194;51.180;5.972;2024-03-23T10:43:43;9.90;66.50
83142;DHT22;75194;51.180;5.972;2024-03-23T10:46:10;10.00;63.20
83142;DHT22;75194;51.180;5.972;2024-03-23T10:48:36;10.40;62.90
83142;DHT22;75194;51.180;5.972;2024-03-23T10:51:02;10.80;61.80
83142;DHT22;75194;51.180;5.972;2024-03-23T10:53:28;10.70;60.70
83142;DHT22;75194;51.180;5.972;2024-03-23T10:55:55;10.30;61.10
83142;DHT22;75194;51.180;5.972;2024-03-23T10:58:41;9.60;63.20
83142;DHT22;75194;51.180;5.972;2024-03-23T11:01:11;9.40;65.40
83142;DHT22;75194;51.180;5.972;2024-03-23T11:03:38;9.00;67.10
83142;DHT22;75194;51.180;5.972;2024-03-23T11:06:07;8.80;66.60
83142;DHT22;75194;51.180;5.972;2024-03-23T11:08:40;8.60;66.90
83142;DHT22;75194;51.180;5.972;2024-03-23T11:11:22;8.20;65.10
83142;DHT22;75194;51.180;5.972;2024-03-23T11:13:51;7.80;66.50
83142;DHT22;75194;51.180;5.972;2024-03-23T11:18:43;7.90;67.60
83142;DHT22;75194;51.180;5.972;2024-03-23T11:21:10;8.00;67.40
83142;DHT22;75194;51.180;5.972;2024-03-23T11:23:35;8.00;66.20
83142;DHT22;75194;51.180;5.972;2024-03-23T11:26:01;8.50;64.40
83142;DHT22;75194;51.180;5.972;2024-03-23T11:28:26;8.60;63.70
83142;DHT22;75194;51.180;5.972;2024-03-23T11:30:52;9.30;62.80
83142;DHT22;75194;51.180;5.972;2024-03-23T11:33:18;8.90;65.70
83142;DHT22;75194;51.180;5.972;2024-03-23T11:35:44;7.70;68.60
83142;DHT22;75194;51.180;5.972;2024-03-23T11:38:12;7.50;68.00
83142;DHT22;75194;51.180;5.972;2024-03-23T11:40:42;7.20;69.10
83142;DHT22;75194;51.180;5.972;2024-03-23T11:43:15;7.30;68.20
83142;DHT22;75194;51.180;5.972;2024-03-23T11:45:46;7.20;66.20
83142;DHT22;75194;51.180;5.972;2024-03-23T11:48:13;7.20;66.30
83142;DHT22;75194;51.180;5.972;2024-03-23T11:50:44;7.30;65.40
83142;DHT22;75194;51.180;5.972;2024-03-23T11:53:13;7.50;63.70
83142;DHT22;75194;51.180;5.972;2024-03-23T11:58:10;8.50;62.40
83142;DHT22;75194;51.180;5.972;2024-03-23T12:00:36;9.00;60.70
83142;DHT22;75194;51.180;5.972;2024-03-23T12:03:03;9.70;60.30
83142;DHT22;75194;51.180;5.972;2024-03-23T12:05:29;10.20;58.30
83142;DHT22;75194;51.180;5.972;2024-03-23T12:07:55;9.80;57.90
83142;DHT22;75194;51.180;5.972;2024-03-23T12:10:21;9.70;59.70
83142;DHT22;75194;51.180;5.972;2024-03-23T12:13:00;10.40;56.50
83142;DHT22;75194;51.180;5.972;2024-03-23T12:15:27;10.70;56.50
83142;DHT22;75194;51.180;5.972;2024-03-23T12:18:08;10.80;57.20
83142;DHT22;75194;51.180;5.972;2024-03-23T12:20:34;11.40;55.60
83142;DHT22;75194;51.180;5.972;2024-03-23T12:23:07;11.70;52.80
83142;DHT22;75194;51.180;5.972;2024-03-23T12:25:36;11.10;55.60
83142;DHT22;75194;51.180;5.972;2024-03-23T12:28:02;10.50;61.70
83142;DHT22;75194;51.180;5.972;2024-03-23T12:30:28;9.50;63.90
83142;DHT22;75194;51.180;5.972;2024-03-23T12:32:54;9.40;64.80
83142;DHT22;75194;51.180;5.972;2024-03-23T12:35:19;9.60;64.40
83142;DHT22;75194;51.180;5.972;2024-03-23T12:37:45;9.60;62.60
83142;DHT22;75194;51.180;5.972;2024-03-23T12:40:13;9.60;62.20
83142;DHT22;75194;51.180;5.972;2024-03-23T12:42:39;9.80;62.00
83142;DHT22;75194;51.180;5.972;2024-03-23T12:45:05;9.70;62.30
83142;DHT22;75194;51.180;5.972;2024-03-23T12:47:31;9.70;60.90
83142;DHT22;75194;51.180;5.972;2024-03-23T12:49:56;9.40;61.60
83142;DHT22;75194;51.180;5.972;2024-03-23T12:52:22;9.40;61.80
83142;DHT22;75194;51.180;5.972;2024-03-23T12:54:49;9.50;59.00
83142;DHT22;75194;51.180;5.972;2024-03-23T12:57:15;9.40;56.40
83142;DHT22;75194;51.180;5.972;2024-03-23T12:59:40;9.10;57.10
83142;DHT22;75194;51.180;5.972;2024-03-23T13:02:06;9.00;59.40
83142;DHT22;75194;51.180;5.972;2024-03-23T13:04:32;8.50;59.80
83142;DHT22;75194;51.180;5.972;2024-03-23T13:06:58;8.50;60.60
83142;DHT22;75194;51.180;5.972;2024-03-23T13:09:23;8.70;61.40
83142;DHT22;75194;51.180;5.972;2024-03-23T13:11:49;9.30;57.70
83142;DHT22;75194;51.180;5.972;2024-03-23T13:14:16;10.10;56.70
83142;DHT22;75194;51.180;5.972;2024-03-23T13:16:42;10.30;55.30
83142;DHT22;75194;51.180;5.972;2024-03-23T13:19:07;10.60;53.50
83142;DHT22;75194;51.180;5.972;2024-03-23T13:21:33;10.70;53.50
83142;DHT22;75194;51.180;5.972;2024-03-23T13:23:59;10.30;54.40
83142;DHT22;75194;51.180;5.972;2024-03-23T13:26:24;10.10;55.90
83142;DHT22;75194;51.180;5.972;2024-03-23T13:28:50;9.90;56.50
83142;DHT22;75194;51.180;5.972;2024-03-23T13:31:19;9.30;59.20
83142;DHT22;75194;51.180;5.972;2024-03-23T13:33:44;8.60;64.70
83142;DHT22;75194;51.180;5.972;2024-03-23T13:36:10;7.90;68.30
83142;DHT22;75194;51.180;5.972;2024-03-23T13:38:35;7.20;71.90
83142;DHT22;75194;51.180;5.972;2024-03-23T13:41:01;6.90;73.40
83142;DHT22;75194;51.180;5.972;2024-03-23T13:43:29;6.90;73.90
83142;DHT22;75194;51.180;5.972;2024-03-23T13:45:56;6.90;74.40
83142;DHT22;75194;51.180;5.972;2024-03-23T13:48:27;6.80;74.70
83142;DHT22;75194;51.180;5.972;2024-03-23T13:50:59;6.70;76.80
83142;DHT22;75194;51.180;5.972;2024-03-23T13:53:25;7.00;74.30
83142;DHT22;75194;51.180;5.972;2024-03-23T13:55:51;7.20;74.90
83142;DHT22;75194;51.180;5.972;2024-03-23T13:58:16;7.40;73.20
83142;DHT22;75194;51.180;5.972;2024-03-23T14:00:43;7.50;72.00
83142;DHT22;75194;51.180;5.972;2024-03-23T14:03:12;7.70;72.30
83142;DHT22;75194;51.180;5.972;2024-03-23T14:05:40;7.90;72.40
83142;DHT22;75194;51.180;5.972;2024-03-23T14:08:09;8.30;70.90
83142;DHT22;75194;51.180;5.972;2024-03-23T14:10:36;8.80;70.10
83142;DHT22;75194;51.180;5.972;2024-03-23T14:13:07;9.20;70.40
83142;DHT22;75194;51.180;5.972;2024-03-23T14:15:33;9.20;67.60
83142;DHT22;75194;51.180;5.972;2024-03-23T14:18:00;9.00;68.70
83142;DHT22;75194;51.180;5.972;2024-03-23T14:20:25;8.90;69.10
83142;DHT22;75194;51.180;5.972;2024-03-23T14:22:51;8.60;67.40
83142;DHT22;75194;51.180;5.972;2024-03-23T14:25:17;8.10;66.80
83142;DHT22;75194;51.180;5.972;2024-03-23T14:27:44;8.00;68.40
83142;DHT22;75194;51.180;5.972;2024-03-23T14:30:10;8.00;68.70
83142;DHT22;75194;51.180;5.972;2024-03-23T14:32:37;7.80;68.80
83142;DHT22;75194;51.180;5.972;2024-03-23T14:35:07;7.90;68.50
83142;DHT22;75194;51.180;5.972;2024-03-23T14:37:36;7.90;70.40
83142;DHT22;75194;51.180;5.972;2024-03-23T14:40:02;8.00;70.30
83142;DHT22;75194;51.180;5.972;2024-03-23T14:42:28;7.80;68.40
83142;DHT22;75194;51.180;5.972;2024-03-23T14:44:53;7.90;69.10
83142;DHT22;75194;51.180;5.972;2024-03-23T14:47:19;8.00;67.90
83142;DHT22;75194;51.180;5.972;2024-03-23T14:49:47;8.00;69.20
83142;DHT22;75194;51.180;5.972;2024-03-23T14:52:13;8.20;67.90
83142;DHT22;75194;51.180;5.972;2024-03-23T14:54:39;8.10;67.50
83142;DHT22;75194;51.180;5.972;2024-03-23T14:57:05;8.10;65.20
83142;DHT22;75194;51.180;5.972;2024-03-23T14:59:32;8.10;65.70
83142;DHT22;75194;51.180;5.972;2024-03-23T15:01:57;8.00;65.90
83142;DHT22;75194;51.180;5.972;2024-03-23T15:04:23;7.80;64.20
83142;DHT22;75194;51.180;5.972;2024-03-23T15:06:49;7.70;64.70
83142;DHT22;75194;51.180;5.972;2024-03-23T15:09:15;7.60;64.50
83142;DHT22;75194;51.180;5.972;2024-03-23T15:11:41;7.50;65.30
83142;DHT22;75194;51.180;5.972;2024-03-23T15:14:07;7.20;65.70
83142;DHT22;75194;51.180;5.972;2024-03-23T15:16:33;7.20;66.40
83142;DHT22;75194;51.180;5.972;2024-03-23T15:18:59;7.20;65.70
83142;DHT22;75194;51.180;5.972;2024-03-23T15:21:25;7.20;65.30
83142;DHT22;75194;51.180;5.972;2024-03-23T15:23:51;7.30;65.20
83142;DHT22;75194;51.180;5.972;2024-03-23T15:26:16;7.30;66.20
83142;DHT22;75194;51.180;5.972;2024-03-23T15:28:42;7.40;66.70
83142;DHT22;75194;51.180;5.972;2024-03-23T15:31:23;7.50;66.60
83142;DHT22;75194;51.180;5.972;2024-03-23T15:33:49;7.50;65.70
83142;DHT22;75194;51.180;5.972;2024-03-23T15:36:14;7.70;66.60
83142;DHT22;75194;51.180;5.972;2024-03-23T15:38:40;8.30;64.40
83142;DHT22;75194;51.180;5.972;2024-03-23T15:41:05;8.70;63.90
83142;DHT22;75194;51.180;5.972;2024-03-23T15:43:31;8.80;63.50
83142;DHT22;75194;51.180;5.972;2024-03-23T15:46:06;8.70;61.10
83142;DHT22;75194;51.180;5.972;2024-03-23T15:48:32;8.70;60.70
83142;DHT22;75194;51.180;5.972;2024-03-23T15:50:59;8.80;60.90
83142;DHT22;75194;51.180;5.972;2024-03-23T15:53:26;9.00;60.60
83142;DHT22;75194;51.180;5.972;2024-03-23T15:55:58;9.00;60.40
83142;DHT22;75194;51.180;5.972;2024-03-23T15:58:25;9.20;58.50
83142;DHT22;75194;51.180;5.972;2024-03-23T16:01:07;9.10;58.90
83142;DHT22;75194;51.180;5.972;2024-03-23T16:03:38;9.10;58.20
83142;DHT22;75194;51.180;5.972;2024-03-23T16:06:05;9.10;56.20
83142;DHT22;75194;51.180;5.972;2024-03-23T16:08:32;9.30;56.70
83142;DHT22;75194;51.180;5.972;2024-03-23T16:11:03;9.40;56.00
83142;DHT22;75194;51.180;5.972;2024-03-23T16:13:29;9.50;54.80
83142;DHT22;75194;51.180;5.972;2024-03-23T16:16:04;9.40;55.40
83142;DHT22;75194;51.180;5.972;2024-03-23T16:18:36;9.40;54.20
83142;DHT22;75194;51.180;5.972;2024-03-23T16:21:04;9.20;53.40
83142;DHT22;75194;51.180;5.972;2024-03-23T16:23:36;9.00;54.20
83142;DHT22;75194;51.180;5.972;2024-03-23T16:26:06;8.80;54.90
83142;DHT22;75194;51.180;5.972;2024-03-23T16:28:36;8.80;55.30
83142;DHT22;75194;51.180;5.972;2024-03-23T16:31:05;8.50;55.60
83142;DHT22;75194;51.180;5.972;2024-03-23T16:33:35;8.40;56.10
83142;DHT22;75194;51.180;5.972;2024-03-23T16:36:07;8.50;56.90
83142;DHT22;75194;51.180;5.972;2024-03-23T16:38:41;8.40;56.50
83142;DHT22;75194;51.180;5.972;2024-03-23T16:41:11;8.40;57.10